sensor_id;sensor_type;location;lat;lon;timestamp;P1;durP1;ratioP1;P2;durP2;ratioP2
49123;SDS011;48506;48.202;16.274;2024-01-30T00:02:12;28.38;;;15.32;;
49123;SDS011;48506;48.202;16.274;2024-01-30T00:04:38;29.70;;;15.43;;
49123;SDS011;48506;48.202;16.274;2024-01-30T00:07:03;32.85;;;16.80;;
49123;SDS011;48506;48.202;16.274;2024-01-30T00:09:29;28.65;;;16.35;;
49123;SDS011;48506;48.202;16.274;2024-01-30T00:11:56;30.80;;;15.40;;
49123;SDS011;48506;48.202;16.274;2024-01-30T00:14:22;32.00;;;15.00;;
49123;SDS011;48506;48.202;16.274;2024-01-30T00:16:48;28.08;;;14.90;;
49123;SDS011;48506;48.202;16.274;2024-01-30T00:19:14;32.00;;;15.40;;
49123;SDS011;48506;48.202;16.274;2024-01-30T00:21:39;25.60;;;14.48;;
49123;SDS011;48506;48.202;16.274;2024-01-30T00:24:06;25.52;;;15.20;;
49123;SDS011;48506;48.202;16.274;2024-01-30T00:26:32;29.95;;;16.15;;
49123;SDS011;48506;48.202;16.274;2024-01-30T00:28:58;30.23;;;15.35;;
49123;SDS011;48506;48.202;16.274;2024-01-30T00:31:24;27.75;;;14.50;;
49123;SDS011;48506;48.202;16.274;2024-01-30T00:33:50;24.63;;;15.00;;
49123;SDS011;48506;48.202;16.274;2024-01-30T00:36:16;27.65;;;14.65;;
49123;SDS011;48506;48.202;16.274;2024-01-30T00:38:41;26.63;;;13.55;;
49123;SDS011;48506;48.202;16.274;2024-01-30T00:41:08;31.23;;;15.77;;
49123;SDS011;48506;48.202;16.274;2024-01-30T00:43:35;27.75;;;13.98;;
49123;SDS011;48506;48.202;16.274;2024-01-30T00:46:01;30.50;;;14.90;;
49123;SDS011;48506;48.202;16.274;2024-01-30T00:48:28;28.00;;;15.05;;
49123;SDS011;48506;48.202;16.274;2024-01-30T00:50:54;31.70;;;15.27;;
49123;SDS011;48506;48.202;16.274;2024-01-30T00:53:20;32.10;;;16.05;;
49123;SDS011;48506;48.202;16.274;2024-01-30T00:55:46;29.15;;;15.23;;
49123;SDS011;48506;48.202;16.274;2024-01-30T00:58:12;30.98;;;16.05;;
49123;SDS011;48506;48.202;16.274;2024-01-30T01:00:38;28.30;;;15.38;;
49123;SDS011;48506;48.202;16.274;2024-01-30T01:03:04;30.63;;;15.98;;
49123;SDS011;48506;48.202;16.274;2024-01-30T01:05:30;27.85;;;15.60;;
49123;SDS011;48506;48.202;16.274;2024-01-30T01:07:56;29.67;;;15.18;;
49123;SDS011;48506;48.202;16.274;2024-01-30T01:10:22;30.40;;;16.65;;
49123;SDS011;48506;48.202;16.274;2024-01-30T01:12:48;33.28;;;15.95;;
49123;SDS011;48506;48.202;16.274;2024-01-30T01:15:14;31.15;;;16.30;;
49123;SDS011;48506;48.202;16.274;2024-01-30T01:17:40;38.03;;;16.02;;
49123;SDS011;48506;48.202;16.274;2024-01-30T01:20:07;31.70;;;16.58;;
49123;SDS011;48506;48.202;16.274;2024-01-30T01:22:34;40.03;;;17.73;;
49123;SDS011;48506;48.202;16.274;2024-01-30T01:25:00;28.67;;;16.85;;
49123;SDS011;48506;48.202;16.274;2024-01-30T01:27:26;32.83;;;16.33;;
49123;SDS011;48506;48.202;16.274;2024-01-30T01:29:53;35.88;;;16.50;;
49123;SDS011;48506;48.202;16.274;2024-01-30T01:32:19;35.85;;;18.00;;
49123;SDS011;48506;48.202;16.274;2024-01-30T01:34:45;33.20;;;17.10;;
49123;SDS011;48506;48.202;16.274;2024-01-30T01:37:11;34.15;;;17.25;;
49123;SDS011;48506;48.202;16.274;2024-01-30T01:39:37;29.92;;;17.40;;
49123;SDS011;48506;48.202;16.274;2024-01-30T01:42:03;32.85;;;17.08;;
49123;SDS011;48506;48.202;16.274;2024-01-30T01:44:29;32.42;;;15.70;;
49123;SDS011;48506;48.202;16.274;2024-01-30T01:46:55;31.10;;;17.02;;
49123;SDS011;48506;48.202;16.274;2024-01-30T01:49:25;31.27;;;16.67;;
49123;SDS011;48506;48.202;16.274;2024-01-30T01:51:54;32.92;;;17.27;;
49123;SDS011;48506;48.202;16.274;2024-01-30T01:54:24;29.65;;;14.40;;
49123;SDS011;48506;48.202;16.274;2024-01-30T01:56:52;32.10;;;16.70;;
49123;SDS011;48506;48.202;16.274;2024-01-30T01:59:19;32.75;;;16.55;;
49123;SDS011;48506;48.202;16.274;2024-01-30T02:01:47;28.60;;;16.63;;
49123;SDS011;48506;48.202;16.274;2024-01-30T02:04:16;39.10;;;16.98;;
49123;SDS011;48506;48.202;16.274;2024-01-30T02:06:43;39.08;;;18.40;;
49123;SDS011;48506;48.202;16.274;2024-01-30T02:09:09;34.90;;;18.38;;
49123;SDS011;48506;48.202;16.274;2024-01-30T02:11:35;29.35;;;16.08;;
49123;SDS011;48506;48.202;16.274;2024-01-30T02:14:04;31.00;;;17.10;;
49123;SDS011;48506;48.202;16.274;2024-01-30T02:16:31;33.30;;;16.98;;
49123;SDS011;48506;48.202;16.274;2024-01-30T02:18:57;31.83;;;17.58;;
49123;SDS011;48506;48.202;16.274;2024-01-30T02:21:23;27.05;;;17.23;;
49123;SDS011;48506;48.202;16.274;2024-01-30T02:23:49;30.98;;;16.08;;
49123;SDS011;48506;48.202;16.274;2024-01-30T02:26:18;37.10;;;17.40;;
49123;SDS011;48506;48.202;16.274;2024-01-30T02:28:43;37.85;;;18.45;;
49123;SDS011;48506;48.202;16.274;2024-01-30T02:31:09;34.10;;;16.90;;
49123;SDS011;48506;48.202;16.274;2024-01-30T02:33:35;34.40;;;16.50;;
49123;SDS011;48506;48.202;16.274;2024-01-30T02:36:01;29.35;;;15.20;;
49123;SDS011;48506;48.202;16.274;2024-01-30T02:38:27;25.83;;;15.52;;
49123;SDS011;48506;48.202;16.274;2024-01-30T02:40:54;33.40;;;17.58;;
49123;SDS011;48506;48.202;16.274;2024-01-30T02:43:22;35.70;;;16.98;;
49123;SDS011;48506;48.202;16.274;2024-01-30T02:45:48;34.67;;;17.25;;
49123;SDS011;48506;48.202;16.274;2024-01-30T02:48:14;31.25;;;16.38;;
49123;SDS011;48506;48.202;16.274;2024-01-30T02:50:40;34.10;;;15.20;;
49123;SDS011;48506;48.202;16.274;2024-01-30T02:53:06;29.10;;;15.55;;
49123;SDS011;48506;48.202;16.274;2024-01-30T02:55:32;30.17;;;15.05;;
49123;SDS011;48506;48.202;16.274;2024-01-30T02:57:58;34.53;;;17.23;;
49123;SDS011;48506;48.202;16.274;2024-01-30T03:00:24;31.55;;;16.42;;
49123;SDS011;48506;48.202;16.274;2024-01-30T03:02:50;36.08;;;16.85;;
49123;SDS011;48506;48.202;16.274;2024-01-30T03:05:16;30.77;;;16.17;;
49123;SDS011;48506;48.202;16.274;2024-01-30T03:07:43;28.90;;;15.50;;
49123;SDS011;48506;48.202;16.274;2024-01-30T03:10:09;35.03;;;16.20;;
49123;SDS011;48506;48.202;16.274;2024-01-30T03:12:35;32.60;;;17.02;;
49123;SDS011;48506;48.202;16.274;2024-01-30T03:15:01;34.00;;;16.73;;
49123;SDS011;48506;48.202;16.274;2024-01-30T03:17:27;33.50;;;17.45;;
49123;SDS011;48506;48.202;16.274;2024-01-30T03:19:52;30.88;;;16.10;;
49123;SDS011;48506;48.202;16.274;2024-01-30T03:22:18;31.45;;;17.17;;
49123;SDS011;48506;48.202;16.274;2024-01-30T03:24:44;35.65;;;16.35;;
49123;SDS011;48506;48.202;16.274;2024-01-30T03:27:10;32.75;;;16.92;;
49123;SDS011;48506;48.202;16.274;2024-01-30T03:29:36;34.05;;;17.10;;
49123;SDS011;48506;48.202;16.274;2024-01-30T03:32:02;32.15;;;16.02;;
49123;SDS011;48506;48.202;16.274;2024-01-30T03:34:29;31.52;;;16.35;;
49123;SDS011;48506;48.202;16.274;2024-01-30T03:36:55;32.05;;;17.73;;
49123;SDS011;48506;48.202;16.274;2024-01-30T03:39:21;29.80;;;17.27;;
49123;SDS011;48506;48.202;16.274;2024-01-30T03:41:48;32.90;;;16.40;;
49123;SDS011;48506;48.202;16.274;2024-01-30T03:44:14;36.22;;;17.15;;
49123;SDS011;48506;48.202;16.274;2024-01-30T03:46:40;32.85;;;16.55;;
49123;SDS011;48506;48.202;16.274;2024-01-30T03:49:05;38.92;;;16.77;;
49123;SDS011;48506;48.202;16.274;2024-01-30T03:51:31;32.03;;;17.17;;
49123;SDS011;48506;48.202;16.274;2024-01-30T03:53:57;29.20;;;16.50;;
49123;SDS011;48506;48.202;16.274;2024-01-30T03:56:23;33.00;;;16.15;;
49123;SDS011;48506;48.202;16.274;2024-01-30T03:58:51;35.05;;;17.65;;
49123;SDS011;48506;48.202;16.274;2024-01-30T04:01:17;31.35;;;18.48;;
49123;SDS011;48506;48.202;16.274;2024-01-30T04:03:43;33.67;;;17.92;;
49123;SDS011;48506;48.202;16.274;2024-01-30T04:06:09;31.88;;;16.08;;
49123;SDS011;48506;48.202;16.274;2024-01-30T04:08:35;32.58;;;17.55;;
49123;SDS011;48506;48.202;16.274;2024-01-30T04:11:05;31.88;;;19.38;;
49123;SDS011;48506;48.202;16.274;2024-01-30T04:13:32;30.67;;;17.70;;
49123;SDS011;48506;48.202;16.274;2024-01-30T04:15:59;32.55;;;17.42;;
49123;SDS011;48506;48.202;16.274;2024-01-30T04:18:28;29.17;;;16.40;;
49123;SDS011;48506;48.202;16.274;2024-01-30T04:20:54;30.85;;;17.75;;
49123;SDS011;48506;48.202;16.274;2024-01-30T04:23:20;38.85;;;18.83;;
49123;SDS011;48506;48.202;16.274;2024-01-30T04:25:46;34.67;;;18.27;;
49123;SDS011;48506;48.202;16.274;2024-01-30T04:28:12;39.47;;;18.17;;
49123;SDS011;48506;48.202;16.274;2024-01-30T04:30:38;31.77;;;16.80;;
49123;SDS011;48506;48.202;16.274;2024-01-30T04:33:05;36.72;;;19.05;;
49123;SDS011;48506;48.202;16.274;2024-01-30T04:35:31;34.50;;;17.45;;
49123;SDS011;48506;48.202;16.274;2024-01-30T04:37:57;32.60;;;17.40;;
49123;SDS011;48506;48.202;16.274;2024-01-30T04:40:23;35.45;;;18.63;;
49123;SDS011;48506;48.202;16.274;2024-01-30T04:42:49;29.73;;;16.73;;
49123;SDS011;48506;48.202;16.274;2024-01-30T04:45:14;32.47;;;17.98;;
49123;SDS011;48506;48.202;16.274;2024-01-30T04:47:40;35.70;;;18.80;;
49123;SDS011;48506;48.202;16.274;2024-01-30T04:50:07;36.28;;;18.80;;
49123;SDS011;48506;48.202;16.274;2024-01-30T04:52:34;36.42;;;18.20;;
49123;SDS011;48506;48.202;16.274;2024-01-30T04:55:00;34.13;;;17.52;;
49123;SDS011;48506;48.202;16.274;2024-01-30T04:57:26;35.78;;;19.13;;
49123;SDS011;48506;48.202;16.274;2024-01-30T04:59:52;36.25;;;18.60;;
49123;SDS011;48506;48.202;16.274;2024-01-30T05:02:18;39.72;;;19.33;;
49123;SDS011;48506;48.202;16.274;2024-01-30T05:04:44;34.65;;;20.45;;
49123;SDS011;48506;48.202;16.274;2024-01-30T05:07:10;37.22;;;19.05;;
49123;SDS011;48506;48.202;16.274;2024-01-30T05:09:36;36.05;;;19.40;;
49123;SDS011;48506;48.202;16.274;2024-01-30T05:12:02;37.38;;;19.67;;
49123;SDS011;48506;48.202;16.274;2024-01-30T05:14:28;40.15;;;19.30;;
49123;SDS011;48506;48.202;16.274;2024-01-30T05:16:53;39.05;;;19.45;;
49123;SDS011;48506;48.202;16.274;2024-01-30T05:19:19;39.90;;;19.25;;
49123;SDS011;48506;48.202;16.274;2024-01-30T05:21:46;44.17;;;20.58;;
49123;SDS011;48506;48.202;16.274;2024-01-30T05:24:12;40.00;;;21.40;;
49123;SDS011;48506;48.202;16.274;2024-01-30T05:26:38;43.22;;;19.90;;
49123;SDS011;48506;48.202;16.274;2024-01-30T05:29:04;38.95;;;21.50;;
49123;SDS011;48506;48.202;16.274;2024-01-30T05:31:31;42.88;;;20.90;;
49123;SDS011;48506;48.202;16.274;2024-01-30T05:33:57;38.55;;;20.08;;
49123;SDS011;48506;48.202;16.274;2024-01-30T05:36:23;39.60;;;20.35;;
49123;SDS011;48506;48.202;16.274;2024-01-30T05:38:49;43.95;;;20.65;;
49123;SDS011;48506;48.202;16.274;2024-01-30T05:41:15;44.33;;;21.35;;
49123;SDS011;48506;48.202;16.274;2024-01-30T05:43:41;44.90;;;21.10;;
49123;SDS011;48506;48.202;16.274;2024-01-30T05:46:07;38.78;;;20.50;;
49123;SDS011;48506;48.202;16.274;2024-01-30T05:48:34;37.92;;;20.65;;
49123;SDS011;48506;48.202;16.274;2024-01-30T05:51:00;42.17;;;21.23;;
49123;SDS011;48506;48.202;16.274;2024-01-30T05:53:28;54.28;;;22.20;;
49123;SDS011;48506;48.202;16.274;2024-01-30T05:55:53;37.88;;;21.83;;
49123;SDS011;48506;48.202;16.274;2024-01-30T05:58:19;37.90;;;20.48;;
49123;SDS011;48506;48.202;16.274;2024-01-30T06:00:45;41.05;;;21.23;;
49123;SDS011;48506;48.202;16.274;2024-01-30T06:03:11;38.90;;;21.63;;
49123;SDS011;48506;48.202;16.274;2024-01-30T06:05:37;42.58;;;21.13;;
49123;SDS011;48506;48.202;16.274;2024-01-30T06:08:03;40.35;;;21.67;;
49123;SDS011;48506;48.202;16.274;2024-01-30T06:10:29;45.70;;;21.17;;
49123;SDS011;48506;48.202;16.274;2024-01-30T06:12:55;42.75;;;20.83;;
49123;SDS011;48506;48.202;16.274;2024-01-30T06:15:21;42.72;;;22.05;;
49123;SDS011;48506;48.202;16.274;2024-01-30T06:17:46;41.20;;;22.65;;
49123;SDS011;48506;48.202;16.274;2024-01-30T06:20:12;41.70;;;21.60;;
49123;SDS011;48506;48.202;16.274;2024-01-30T06:22:38;41.03;;;21.80;;
49123;SDS011;48506;48.202;16.274;2024-01-30T06:25:04;51.90;;;23.02;;
49123;SDS011;48506;48.202;16.274;2024-01-30T06:27:30;42.70;;;23.45;;
49123;SDS011;48506;48.202;16.274;2024-01-30T06:29:56;39.67;;;22.23;;
49123;SDS011;48506;48.202;16.274;2024-01-30T06:32:22;42.85;;;23.48;;
49123;SDS011;48506;48.202;16.274;2024-01-30T06:34:48;43.03;;;20.35;;
49123;SDS011;48506;48.202;16.274;2024-01-30T06:37:13;51.00;;;22.35;;
49123;SDS011;48506;48.202;16.274;2024-01-30T06:39:39;44.13;;;21.15;;
49123;SDS011;48506;48.202;16.274;2024-01-30T06:42:05;41.97;;;21.92;;
49123;SDS011;48506;48.202;16.274;2024-01-30T06:44:31;39.10;;;21.98;;
49123;SDS011;48506;48.202;16.274;2024-01-30T06:46:57;42.85;;;21.83;;
49123;SDS011;48506;48.202;16.274;2024-01-30T06:49:23;42.67;;;21.40;;
49123;SDS011;48506;48.202;16.274;2024-01-30T06:51:49;40.60;;;21.23;;
49123;SDS011;48506;48.202;16.274;2024-01-30T06:54:14;42.90;;;22.02;;
49123;SDS011;48506;48.202;16.274;2024-01-30T06:56:40;41.60;;;22.75;;
49123;SDS011;48506;48.202;16.274;2024-01-30T06:59:06;41.13;;;22.33;;
49123;SDS011;48506;48.202;16.274;2024-01-30T07:01:33;38.78;;;20.60;;
49123;SDS011;48506;48.202;16.274;2024-01-30T07:03:59;37.92;;;19.50;;
49123;SDS011;48506;48.202;16.274;2024-01-30T07:06:25;34.63;;;19.75;;
49123;SDS011;48506;48.202;16.274;2024-01-30T07:08:51;42.05;;;20.27;;
49123;SDS011;48506;48.202;16.274;2024-01-30T07:11:20;45.17;;;22.55;;
49123;SDS011;48506;48.202;16.274;2024-01-30T07:13:49;35.97;;;20.42;;
49123;SDS011;48506;48.202;16.274;2024-01-30T07:16:16;36.72;;;21.25;;
49123;SDS011;48506;48.202;16.274;2024-01-30T07:18:43;35.63;;;20.17;;
49123;SDS011;48506;48.202;16.274;2024-01-30T07:21:09;40.03;;;21.75;;
49123;SDS011;48506;48.202;16.274;2024-01-30T07:23:35;37.75;;;21.35;;
49123;SDS011;48506;48.202;16.274;2024-01-30T07:26:06;37.50;;;20.58;;
49123;SDS011;48506;48.202;16.274;2024-01-30T07:28:34;45.88;;;22.05;;
49123;SDS011;48506;48.202;16.274;2024-01-30T07:31:01;36.53;;;20.02;;
49123;SDS011;48506;48.202;16.274;2024-01-30T07:33:27;39.05;;;20.58;;
49123;SDS011;48506;48.202;16.274;2024-01-30T07:35:53;40.15;;;20.90;;
49123;SDS011;48506;48.202;16.274;2024-01-30T07:38:19;41.85;;;20.63;;
49123;SDS011;48506;48.202;16.274;2024-01-30T07:40:45;35.17;;;20.27;;
49123;SDS011;48506;48.202;16.274;2024-01-30T07:43:12;36.65;;;21.13;;
49123;SDS011;48506;48.202;16.274;2024-01-30T07:45:38;35.13;;;19.00;;
49123;SDS011;48506;48.202;16.274;2024-01-30T07:48:07;33.97;;;19.23;;
49123;SDS011;48506;48.202;16.274;2024-01-30T07:50:33;36.45;;;18.38;;
49123;SDS011;48506;48.202;16.274;2024-01-30T07:52:59;36.05;;;19.35;;
49123;SDS011;48506;48.202;16.274;2024-01-30T07:58:28;32.15;;;16.73;;
49123;SDS011;48506;48.202;16.274;2024-01-30T08:00:54;32.95;;;17.98;;
49123;SDS011;48506;48.202;16.274;2024-01-30T08:03:22;33.50;;;18.75;;
49123;SDS011;48506;48.202;16.274;2024-01-30T08:05:47;36.65;;;18.85;;
49123;SDS011;48506;48.202;16.274;2024-01-30T08:08:13;33.95;;;19.05;;
49123;SDS011;48506;48.202;16.274;2024-01-30T08:10:39;30.58;;;18.27;;
49123;SDS011;48506;48.202;16.274;2024-01-30T08:13:05;31.20;;;17.83;;
49123;SDS011;48506;48.202;16.274;2024-01-30T08:15:31;32.95;;;18.63;;
49123;SDS011;48506;48.202;16.274;2024-01-30T08:17:57;32.72;;;17.02;;
49123;SDS011;48506;48.202;16.274;2024-01-30T08:20:24;34.97;;;17.48;;
49123;SDS011;48506;48.202;16.274;2024-01-30T08:22:50;32.22;;;17.35;;
49123;SDS011;48506;48.202;16.274;2024-01-30T08:25:17;40.90;;;18.63;;
49123;SDS011;48506;48.202;16.274;2024-01-30T08:27:42;36.75;;;18.88;;
49123;SDS011;48506;48.202;16.274;2024-01-30T08:30:09;28.60;;;17.52;;
49123;SDS011;48506;48.202;16.274;2024-01-30T08:32:35;27.55;;;16.65;;
49123;SDS011;48506;48.202;16.274;2024-01-30T08:35:01;30.05;;;16.38;;
49123;SDS011;48506;48.202;16.274;2024-01-30T08:37:29;31.73;;;16.60;;
49123;SDS011;48506;48.202;16.274;2024-01-30T08:39:55;30.30;;;16.77;;
49123;SDS011;48506;48.202;16.274;2024-01-30T08:42:22;30.98;;;17.20;;
49123;SDS011;48506;48.202;16.274;2024-01-30T08:44:48;25.92;;;16.15;;
49123;SDS011;48506;48.202;16.274;2024-01-30T08:47:16;32.33;;;16.58;;
49123;SDS011;48506;48.202;16.274;2024-01-30T08:49:43;28.45;;;15.50;;
49123;SDS011;48506;48.202;16.274;2024-01-30T08:52:10;31.30;;;16.50;;
49123;SDS011;48506;48.202;16.274;2024-01-30T08:54:36;34.17;;;17.45;;
49123;SDS011;48506;48.202;16.274;2024-01-30T08:57:02;24.08;;;14.57;;
49123;SDS011;48506;48.202;16.274;2024-01-30T08:59:29;28.08;;;14.48;;
49123;SDS011;48506;48.202;16.274;2024-01-30T09:01:55;27.33;;;16.33;;
49123;SDS011;48506;48.202;16.274;2024-01-30T09:04:23;26.80;;;15.32;;
49123;SDS011;48506;48.202;16.274;2024-01-30T09:06:50;25.35;;;17.10;;
49123;SDS011;48506;48.202;16.274;2024-01-30T09:09:16;26.77;;;16.02;;
49123;SDS011;48506;48.202;16.274;2024-01-30T09:11:43;28.23;;;15.60;;
49123;SDS011;48506;48.202;16.274;2024-01-30T09:14:09;33.42;;;17.00;;
49123;SDS011;48506;48.202;16.274;2024-01-30T09:16:35;32.92;;;15.68;;
49123;SDS011;48506;48.202;16.274;2024-01-30T09:19:01;23.63;;;16.40;;
49123;SDS011;48506;48.202;16.274;2024-01-30T09:21:26;23.77;;;15.63;;
49123;SDS011;48506;48.202;16.274;2024-01-30T09:24:01;27.58;;;15.88;;
49123;SDS011;48506;48.202;16.274;2024-01-30T09:26:29;33.08;;;17.15;;
49123;SDS011;48506;48.202;16.274;2024-01-30T09:28:54;29.00;;;15.60;;
49123;SDS011;48506;48.202;16.274;2024-01-30T09:31:20;28.23;;;15.00;;
49123;SDS011;48506;48.202;16.274;2024-01-30T09:33:46;31.20;;;15.95;;
49123;SDS011;48506;48.202;16.274;2024-01-30T09:36:13;24.95;;;15.73;;
49123;SDS011;48506;48.202;16.274;2024-01-30T09:38:44;27.60;;;14.57;;
49123;SDS011;48506;48.202;16.274;2024-01-30T09:41:09;25.90;;;15.20;;
49123;SDS011;48506;48.202;16.274;2024-01-30T09:43:39;23.92;;;14.15;;
49123;SDS011;48506;48.202;16.274;2024-01-30T09:46:05;30.40;;;16.10;;
49123;SDS011;48506;48.202;16.274;2024-01-30T09:48:33;25.00;;;16.55;;
49123;SDS011;48506;48.202;16.274;2024-01-30T09:51:02;21.87;;;12.23;;
49123;SDS011;48506;48.202;16.274;2024-01-30T09:53:29;26.17;;;15.27;;
49123;SDS011;48506;48.202;16.274;2024-01-30T09:55:54;27.95;;;14.52;;
49123;SDS011;48506;48.202;16.274;2024-01-30T09:58:21;30.15;;;15.15;;
49123;SDS011;48506;48.202;16.274;2024-01-30T10:00:47;21.83;;;13.90;;
49123;SDS011;48506;48.202;16.274;2024-01-30T10:03:13;24.80;;;14.43;;
49123;SDS011;48506;48.202;16.274;2024-01-30T10:05:40;28.15;;;15.20;;
49123;SDS011;48506;48.202;16.274;2024-01-30T10:08:06;27.42;;;14.93;;
49123;SDS011;48506;48.202;16.274;2024-01-30T10:10:35;21.25;;;13.27;;
49123;SDS011;48506;48.202;16.274;2024-01-30T10:13:01;24.35;;;14.85;;
49123;SDS011;48506;48.202;16.274;2024-01-30T10:15:28;23.70;;;13.10;;
49123;SDS011;48506;48.202;16.274;2024-01-30T10:17:54;23.55;;;14.35;;
49123;SDS011;48506;48.202;16.274;2024-01-30T10:20:20;30.42;;;15.50;;
49123;SDS011;48506;48.202;16.274;2024-01-30T10:22:47;26.92;;;14.20;;
49123;SDS011;48506;48.202;16.274;2024-01-30T10:25:14;25.40;;;14.20;;
49123;SDS011;48506;48.202;16.274;2024-01-30T10:27:41;26.40;;;14.40;;
49123;SDS011;48506;48.202;16.274;2024-01-30T10:30:07;19.65;;;12.43;;
49123;SDS011;48506;48.202;16.274;2024-01-30T10:32:34;24.65;;;12.95;;
49123;SDS011;48506;48.202;16.274;2024-01-30T10:35:00;23.30;;;14.18;;
49123;SDS011;48506;48.202;16.274;2024-01-30T10:37:26;23.25;;;13.07;;
49123;SDS011;48506;48.202;16.274;2024-01-30T10:42:25;21.85;;;12.73;;
49123;SDS011;48506;48.202;16.274;2024-01-30T10:45:07;27.48;;;12.82;;
49123;SDS011;48506;48.202;16.274;2024-01-30T10:47:35;19.92;;;12.85;;
49123;SDS011;48506;48.202;16.274;2024-01-30T10:50:02;24.52;;;13.23;;
49123;SDS011;48506;48.202;16.274;2024-01-30T10:52:31;21.48;;;12.73;;
49123;SDS011;48506;48.202;16.274;2024-01-30T10:54:58;18.70;;;12.48;;
49123;SDS011;48506;48.202;16.274;2024-01-30T10:57:25;25.38;;;12.98;;
49123;SDS011;48506;48.202;16.274;2024-01-30T10:59:56;22.48;;;12.95;;
49123;SDS011;48506;48.202;16.274;2024-01-30T11:02:23;20.33;;;12.50;;
49123;SDS011;48506;48.202;16.274;2024-01-30T11:04:54;24.13;;;13.55;;
49123;SDS011;48506;48.202;16.274;2024-01-30T11:07:25;22.35;;;13.60;;
49123;SDS011;48506;48.202;16.274;2024-01-30T11:09:53;22.65;;;12.98;;
49123;SDS011;48506;48.202;16.274;2024-01-30T11:12:29;23.88;;;13.35;;
49123;SDS011;48506;48.202;16.274;2024-01-30T11:15:03;19.80;;;12.85;;
49123;SDS011;48506;48.202;16.274;2024-01-30T11:17:44;21.25;;;11.73;;
49123;SDS011;48506;48.202;16.274;2024-01-30T11:20:25;20.92;;;12.07;;
49123;SDS011;48506;48.202;16.274;2024-01-30T11:22:59;18.90;;;11.45;;
49123;SDS011;48506;48.202;16.274;2024-01-30T11:25:31;21.45;;;13.55;;
49123;SDS011;48506;48.202;16.274;2024-01-30T11:27:58;22.25;;;12.45;;
49123;SDS011;48506;48.202;16.274;2024-01-30T11:30:27;25.77;;;12.90;;
49123;SDS011;48506;48.202;16.274;2024-01-30T11:35:25;17.85;;;12.13;;
49123;SDS011;48506;48.202;16.274;2024-01-30T11:37:51;23.05;;;13.15;;
49123;SDS011;48506;48.202;16.274;2024-01-30T11:40:19;17.80;;;11.20;;
49123;SDS011;48506;48.202;16.274;2024-01-30T11:42:45;17.60;;;11.45;;
49123;SDS011;48506;48.202;16.274;2024-01-30T11:45:12;23.48;;;12.88;;
49123;SDS011;48506;48.202;16.274;2024-01-30T11:47:38;20.50;;;11.75;;
49123;SDS011;48506;48.202;16.274;2024-01-30T11:50:04;16.23;;;10.82;;
49123;SDS011;48506;48.202;16.274;2024-01-30T11:52:33;23.52;;;12.13;;
49123;SDS011;48506;48.202;16.274;2024-01-30T11:54:59;20.27;;;11.25;;
49123;SDS011;48506;48.202;16.274;2024-01-30T11:57:29;15.75;;;11.50;;
49123;SDS011;48506;48.202;16.274;2024-01-30T11:59:54;21.17;;;11.82;;
49123;SDS011;48506;48.202;16.274;2024-01-30T12:02:21;18.08;;;11.05;;
49123;SDS011;48506;48.202;16.274;2024-01-30T12:04:47;17.60;;;11.00;;
49123;SDS011;48506;48.202;16.274;2024-01-30T12:07:13;16.27;;;11.05;;
49123;SDS011;48506;48.202;16.274;2024-01-30T12:09:42;21.90;;;11.15;;
49123;SDS011;48506;48.202;16.274;2024-01-30T12:12:08;18.35;;;12.13;;
49123;SDS011;48506;48.202;16.274;2024-01-30T12:14:39;21.10;;;12.75;;
49123;SDS011;48506;48.202;16.274;2024-01-30T12:17:07;21.30;;;11.50;;
49123;SDS011;48506;48.202;16.274;2024-01-30T12:19:34;17.60;;;11.63;;
49123;SDS011;48506;48.202;16.274;2024-01-30T12:22:00;19.08;;;11.18;;
49123;SDS011;48506;48.202;16.274;2024-01-30T12:24:29;18.90;;;11.05;;
49123;SDS011;48506;48.202;16.274;2024-01-30T12:26:58;17.48;;;10.48;;
49123;SDS011;48506;48.202;16.274;2024-01-30T12:29:25;16.90;;;11.52;;
49123;SDS011;48506;48.202;16.274;2024-01-30T12:31:54;18.40;;;11.93;;
49123;SDS011;48506;48.202;16.274;2024-01-30T12:34:20;23.15;;;11.80;;
49123;SDS011;48506;48.202;16.274;2024-01-30T12:36:49;22.30;;;11.95;;
49123;SDS011;48506;48.202;16.274;2024-01-30T12:39:15;18.02;;;11.18;;
49123;SDS011;48506;48.202;16.274;2024-01-30T12:41:41;16.02;;;11.57;;
49123;SDS011;48506;48.202;16.274;2024-01-30T12:44:07;18.92;;;11.80;;
49123;SDS011;48506;48.202;16.274;2024-01-30T12:46:36;17.58;;;10.35;;
49123;SDS011;48506;48.202;16.274;2024-01-30T12:49:02;17.27;;;11.18;;
49123;SDS011;48506;48.202;16.274;2024-01-30T12:51:28;17.13;;;11.10;;
49123;SDS011;48506;48.202;16.274;2024-01-30T12:53:54;16.10;;;11.38;;
49123;SDS011;48506;48.202;16.274;2024-01-30T12:56:20;18.95;;;10.80;;
49123;SDS011;48506;48.202;16.274;2024-01-30T12:58:46;20.58;;;10.85;;
49123;SDS011;48506;48.202;16.274;2024-01-30T13:01:12;16.77;;;11.38;;
49123;SDS011;48506;48.202;16.274;2024-01-30T13:03:37;17.23;;;12.15;;
49123;SDS011;48506;48.202;16.274;2024-01-30T13:06:03;17.02;;;10.77;;
49123;SDS011;48506;48.202;16.274;2024-01-30T13:08:29;20.65;;;12.18;;
49123;SDS011;48506;48.202;16.274;2024-01-30T13:10:55;21.23;;;11.90;;
49123;SDS011;48506;48.202;16.274;2024-01-30T13:13:21;18.20;;;11.02;;
49123;SDS011;48506;48.202;16.274;2024-01-30T13:15:47;19.25;;;11.77;;
49123;SDS011;48506;48.202;16.274;2024-01-30T13:18:13;16.77;;;11.05;;
49123;SDS011;48506;48.202;16.274;2024-01-30T13:20:39;18.92;;;11.27;;
49123;SDS011;48506;48.202;16.274;2024-01-30T13:23:05;16.98;;;11.18;;
49123;SDS011;48506;48.202;16.274;2024-01-30T13:25:31;17.63;;;12.20;;
49123;SDS011;48506;48.202;16.274;2024-01-30T13:27:57;19.13;;;12.98;;
49123;SDS011;48506;48.202;16.274;2024-01-30T13:30:23;24.92;;;12.48;;
49123;SDS011;48506;48.202;16.274;2024-01-30T13:32:49;17.20;;;11.13;;
49123;SDS011;48506;48.202;16.274;2024-01-30T13:35:15;15.05;;;10.63;;
49123;SDS011;48506;48.202;16.274;2024-01-30T13:37:42;19.55;;;10.93;;
49123;SDS011;48506;48.202;16.274;2024-01-30T13:40:08;16.13;;;10.70;;
49123;SDS011;48506;48.202;16.274;2024-01-30T13:42:37;18.85;;;11.23;;
49123;SDS011;48506;48.202;16.274;2024-01-30T13:45:04;17.13;;;10.85;;
49123;SDS011;48506;48.202;16.274;2024-01-30T13:47:30;17.30;;;10.57;;
49123;SDS011;48506;48.202;16.274;2024-01-30T13:49:56;17.55;;;11.05;;
49123;SDS011;48506;48.202;16.274;2024-01-30T13:52:22;16.17;;;10.77;;
49123;SDS011;48506;48.202;16.274;2024-01-30T13:54:48;17.63;;;10.43;;
49123;SDS011;48506;48.202;16.274;2024-01-30T13:57:14;16.33;;;11.57;;
49123;SDS011;48506;48.202;16.274;2024-01-30T13:59:40;17.75;;;11.35;;
49123;SDS011;48506;48.202;16.274;2024-01-30T14:02:05;16.35;;;11.32;;
49123;SDS011;48506;48.202;16.274;2024-01-30T14:04:33;13.60;;;9.60;;
49123;SDS011;48506;48.202;16.274;2024-01-30T14:06:59;16.05;;;9.60;;
49123;SDS011;48506;48.202;16.274;2024-01-30T14:09:25;16.85;;;11.23;;
49123;SDS011;48506;48.202;16.274;2024-01-30T14:11:51;14.10;;;9.35;;
49123;SDS011;48506;48.202;16.274;2024-01-30T14:14:16;15.35;;;9.52;;